Nearby METAR Reports

Here are local weather reports from nearby weather stations and airports.

KHFD - Hartford/Brainar, Connecticut, USA
Distance from station: NE 5mi, 8km
Updated: Sun, 10/20/19 11:53am EDT
Clear
Clear
 Wind from calm
Wind: Calm
Temperature: 52°F , 11°C
Dew Point: 39°F , 4°C
Humidity: 62%
Barometer: 30.08 inHg , 1018.6 hPa
Clouds: Clear
Visibility: 10 miles , 16 km
2019/10/20 15:53 KHFD 201553Z 00000KT 10SM CLR 11/04 A3008 RMK AO2 SLP187 T01110044
KMMK - Meriden, Connecticut, USA
Distance from station: SSW 13mi, 21km
Updated: Sun, 10/20/19 11:53am EDT
Clear
Clear
 Wind from NNE
Wind: NNE 6 mph , 9 km/h
Temperature: 52°F , 11°C
Dew Point: 41°F , 5°C
Humidity: 67%
Barometer: 30.07 inHg , 1018.3 hPa
Clouds: Clear
Visibility: 10 miles , 16 km
2019/10/20 15:53 KMMK 201553Z AUTO 02005KT 10SM CLR 11/05 A3007 RMK AO2 SLP184 T01110050
 
KBDL - Windsor Locks, Connecticut, USA
Distance from station: N 17mi, 28km
Updated: Sun, 10/20/19 11:51am EDT
Overcast
Overcast
 Wind from calm
Wind: Calm
Temperature: 55°F , 13°C
Dew Point: 39°F , 4°C
Humidity: 55%
Barometer: 30.08 inHg , 1018.6 hPa
Clouds: Overcast
Visibility: 10 miles , 16 km
Cloud details: Few Clouds 21000 ft
Overcast 25000 ft
2019/10/20 15:51 KBDL 201551Z 00000KT 10SM FEW210 OVC250 13/04 A3008 RMK AO2 SLP186 T01280039
KSNC - Chester, Connecticut, USA
Distance from station: SSE 24mi, 38km
Updated: Sun, 10/20/19 12:15pm EDT
Few Clouds
Few Clouds
 Wind from ESE
Wind: ESE 6 mph , 9 km/h
Temperature: 59°F , 15°C
Dew Point: 48°F , 9°C
Humidity: 68%
Barometer: 30.07 inHg , 1018.3 hPa
Clouds: Few Clouds
Visibility: 10 miles , 16 km
Cloud details: Few Clouds 2300 ft
2019/10/20 16:15 KSNC 201615Z AUTO 12005KT 10SM FEW023 15/09 A3007 RMK AO2
 
KOXC - Oxford/Waterbury, Connecticut, USA
Distance from station: SW 26mi, 42km
Updated: Sun, 10/20/19 11:51am EDT
Few Clouds
Few Clouds
 Wind from ESE
Wind: ESE 6 mph , 9 km/h
Temperature: 54°F , 12°C
Dew Point: 46°F , 8°C
Humidity: 77%
Barometer: 30.07 inHg , 1018.3 hPa
Clouds: Few Clouds
Visibility: 10 miles , 16 km
Cloud details: Few Clouds 10000 ft
2019/10/20 15:51 KOXC 201551Z 11005KT 10SM FEW100 12/08 A3007 RMK AO2 SLP196 T01170078
KIJD - Willimantic, Connecticut, USA
Distance from station: E 28mi, 45km
Updated: Sun, 10/20/19 11:52am EDT
Clear
Clear
 Wind from calm
Wind: Calm
Temperature: 55°F , 13°C
Dew Point: 43°F , 6°C
Humidity: 63%
Barometer: 30.09 inHg , 1019 hPa
Clouds: Clear
Visibility: 10 miles , 16 km
2019/10/20 15:52 KIJD 201552Z AUTO 00000KT 10SM CLR 13/06 A3009 RMK AO2 SLP189 T01280061
 
KHVN - New Haven/Tweed, Connecticut, USA
Distance from station: SSW 30mi, 48km
Updated: Sun, 10/20/19 11:53am EDT
Clear
Clear
 Wind from varies
Wind: varies 3 mph , 6 km/h
Temperature: 59°F , 15°C
Dew Point: 48°F , 9°C
Humidity: 68%
Barometer: 30.07 inHg , 1018.3 hPa
Clouds: Clear
Visibility: 10 miles , 16 km
2019/10/20 15:53 KHVN 201553Z VRB03KT 10SM CLR 15/09 A3007 RMK AO2 SLP182 T01500094
KBAF - Westfield, Massachusetts, USA
Distance from station: 0 33mi, 54km
Updated: Sun, 10/20/19 11:53am EDT
Mostly cloudy
Mostly cloudy
 Wind from calm
Wind: Calm
Temperature: 54°F , 12°C
Dew Point: 37°F , 3°C
Humidity: 54%
Barometer: 30.08 inHg , 1018.6 hPa
Clouds: Mostly cloudy
Visibility: 10 miles , 16 km
Cloud details: Mostly cloudy 11000 ft
2019/10/20 15:53 KBAF 201553Z 00000KT 10SM BKN110 12/03 A3008 RMK AO2 SLP188 T01220033
 
KCEF - Chicopee/Westove, Massachusetts, USA
Distance from station: NNE 37mi, 60km
Updated: Sun, 10/20/19 11:57am EDT
Mostly cloudy
Mostly cloudy
 Wind from NNW
Wind: NNW 3 mph , 6 km/h
Temperature: 55°F , 13°C
Dew Point: 37°F , 3°C
Humidity: 51%
Barometer: 30.06 inHg , 1017.9 hPa
Clouds: Mostly cloudy
Visibility: 10 miles , 16 km
Cloud details: Few Clouds 12000 ft
Mostly cloudy 20000 ft
2019/10/20 15:57 KCEF 201557Z 33003KT 10SM FEW120 BKN200 13/03 A3006 RMK AO2A SLP187 T01270034
KBDR - Bridgeport, Connecticut, USA
Distance from station: SSW 42mi, 67km
Updated: Sun, 10/20/19 11:52am EDT
Clear
Clear
 Wind from ENE
Wind: ENE 8 mph , 13 km/h
Temperature: 55°F , 13°C
Dew Point: 48°F , 9°C
Humidity: 77%
Barometer: 30.07 inHg , 1018.3 hPa
Clouds: Clear
Visibility: 10 miles , 16 km
2019/10/20 15:52 KBDR 201552Z 07007KT 10SM CLR 13/09 A3007 RMK AO2 SLP181 T01330094
 
KGON - Groton/New Londo, Connecticut, USA
Distance from station: SE 42mi, 68km
Updated: Sun, 10/20/19 11:56am EDT
Clear
Clear
 Wind from E
Wind: E 7 mph , 11 km/h
Temperature: 57°F , 14°C
Dew Point: 48°F , 9°C
Humidity: 72%
Barometer: 30.08 inHg , 1018.6 hPa
Clouds: Clear
Visibility: 10 miles , 16 km
2019/10/20 15:56 KGON 201556Z 10006KT 10SM CLR 14/09 A3008 RMK AO2 SLP184 T01440094
KDXR - Danbury, Connecticut, USA
Distance from station: WSW 45mi, 73km
Updated: Sun, 10/20/19 11:53am EDT
Partly cloudy
Partly cloudy
 Wind from calm
Wind: Calm
Temperature: 52°F , 11°C
Dew Point: 43°F , 6°C
Humidity: 72%
Barometer: 30.08 inHg , 1018.6 hPa
Clouds: Partly cloudy
Visibility: 10 miles , 16 km
Cloud details: Partly cloudy 10000 ft
2019/10/20 15:53 KDXR 201553Z 00000KT 10SM SCT100 11/06 A3008 RMK AO2 SLP187 T01060056